Time;durP1;ratioP1;P1;durP2;ratioP2;P2;SDS_P1;SDS_P2;PMS_P1;PMS_P2;Temp;Humidity;BMP_temperature;BMP_pressure;BME280_temperature;BME280_humidity;BME280_pressure;Samples;Min_cycle;Max_cycle;Signal;HPM_P1;HPM_P2
2024/03/09 00:01:39;;;;;;;0.60;0.60;;;3.80;99.90;;;;;;5079276;28;20194;-80
2024/03/09 00:04:06;;;;;;;3.20;2.05;;;3.80;99.90;;;;;;5081189;28;20202;-82
2024/03/09 00:06:35;;;;;;;0.50;0.50;;;3.70;99.90;;;;;;5080939;28;20556;-81
2024/03/09 00:09:03;;;;;;;0.50;0.40;;;3.70;99.90;;;;;;5078578;28;20220;-81
2024/03/09 00:11:32;;;;;;;2.45;2.15;;;3.70;99.90;;;;;;5078769;28;20273;-81
2024/03/09 00:13:59;;;;;;;0.50;0.50;;;3.60;99.90;;;;;;5083617;28;20198;-82
2024/03/09 00:16:26;;;;;;;3.20;2.47;;;3.60;99.90;;;;;;5086305;28;20574;-82
2024/03/09 00:18:53;;;;;;;1.25;1.25;;;3.60;99.90;;;;;;5086051;28;20727;-82
2024/03/09 00:21:20;;;;;;;0.90;0.90;;;3.50;99.90;;;;;;5086421;28;20201;-82
2024/03/09 00:23:51;;;;;;;0.60;0.50;;;3.50;99.90;;;;;;5086706;28;20289;-82
2024/03/09 00:26:19;;;;;;;6.95;0.93;;;3.50;99.90;;;;;;5086189;28;20696;-82
2024/03/09 00:28:47;;;;;;;0.50;0.50;;;3.50;99.90;;;;;;5086104;28;20222;-82
2024/03/09 00:31:16;;;;;;;3.05;1.02;;;3.50;99.90;;;;;;5086341;28;20202;-82
2024/03/09 00:33:44;;;;;;;4.90;2.70;;;3.40;99.90;;;;;;5085329;28;20647;-82
2024/03/09 00:36:11;;;;;;;1.02;0.93;;;3.40;99.90;;;;;;5084633;28;20194;-83
2024/03/09 00:38:40;;;;;;;0.50;0.50;;;3.40;99.90;;;;;;5086542;28;20589;-82
2024/03/09 00:41:09;;;;;;;0.50;0.50;;;3.30;99.90;;;;;;5085958;28;20198;-82
2024/03/09 00:43:43;;;;;;;2.88;1.23;;;3.30;99.90;;;;;;5085924;28;20236;-82
2024/03/09 00:46:12;;;;;;;1.00;1.00;;;3.20;99.90;;;;;;5086056;28;20201;-82
2024/03/09 00:48:40;;;;;;;0.82;0.77;;;3.20;99.90;;;;;;5086077;28;20635;-82
2024/03/09 00:51:08;;;;;;;0.50;0.50;;;3.20;99.90;;;;;;5085680;28;20205;-82
2024/03/09 00:53:35;;;;;;;3.25;1.35;;;3.20;99.90;;;;;;5085401;28;20542;-82
2024/03/09 00:56:05;;;;;;;2.40;2.25;;;3.20;99.90;;;;;;5086760;28;20194;-82
2024/03/09 00:58:33;;;;;;;2.05;1.92;;;3.10;99.90;;;;;;5086132;28;20211;-82
2024/03/09 01:01:03;;;;;;;1.42;0.98;;;3.20;99.90;;;;;;5083843;28;20198;-82
2024/03/09 01:03:31;;;;;;;0.50;0.50;;;3.10;99.90;;;;;;5089032;28;20175;-80
2024/03/09 01:05:58;;;;;;;5.10;2.90;;;3.10;99.90;;;;;;5100585;28;20182;-80
2024/03/09 01:08:25;;;;;;;0.60;0.57;;;3.10;99.90;;;;;;5099535;28;20273;-81
2024/03/09 01:10:52;;;;;;;1.65;1.48;;;3.10;99.90;;;;;;5100004;28;20201;-82
2024/03/09 01:13:18;;;;;;;0.77;0.77;;;3.10;99.90;;;;;;5096721;28;20197;-82
2024/03/09 01:15:45;;;;;;;0.50;0.50;;;3.00;99.90;;;;;;5082379;28;20191;-82
2024/03/09 01:18:14;;;;;;;1.45;1.35;;;3.10;99.90;;;;;;5082374;28;20221;-82
2024/03/09 01:20:42;;;;;;;1.85;1.75;;;3.10;99.90;;;;;;5080861;28;20198;-82
2024/03/09 01:23:10;;;;;;;0.57;0.50;;;3.00;99.90;;;;;;5081801;28;20195;-82
2024/03/09 01:25:37;;;;;;;0.80;0.80;;;3.00;99.90;;;;;;5082822;28;20205;-82
2024/03/09 01:28:05;;;;;;;0.50;0.50;;;3.00;99.90;;;;;;5082217;28;20215;-82
2024/03/09 01:30:34;;;;;;;2.85;2.75;;;2.90;99.90;;;;;;5082066;28;20206;-82
2024/03/09 01:33:00;;;;;;;0.50;0.50;;;2.90;99.90;;;;;;5083588;28;20719;-82
2024/03/09 01:35:28;;;;;;;2.25;2.05;;;2.90;99.90;;;;;;5086786;28;20664;-83
2024/03/09 01:37:58;;;;;;;0.50;0.50;;;2.80;99.90;;;;;;5086139;28;20240;-81
2024/03/09 01:40:25;;;;;;;2.05;1.95;;;2.80;99.90;;;;;;5079775;28;20679;-81
2024/03/09 01:42:51;;;;;;;4.03;3.70;;;2.80;99.90;;;;;;5077605;28;20202;-81
2024/03/09 01:45:18;;;;;;;17.85;5.50;;;2.80;99.90;;;;;;5077322;28;20680;-80
2024/03/09 01:47:46;;;;;;;0.75;0.75;;;2.80;99.90;;;;;;5077704;28;20279;-80
2024/03/09 01:50:14;;;;;;;0.95;0.95;;;2.80;99.90;;;;;;5077155;28;20241;-80
2024/03/09 01:52:47;;;;;;;0.93;0.93;;;2.80;99.90;;;;;;5077100;28;20569;-81
2024/03/09 01:55:18;;;;;;;0.50;0.50;;;2.80;99.90;;;;;;5076953;28;20681;-80
2024/03/09 01:57:46;;;;;;;0.50;0.50;;;2.80;99.90;;;;;;5076883;28;20276;-81
2024/03/09 02:00:17;;;;;;;0.60;0.60;;;2.70;99.90;;;;;;5076311;28;20233;-80
2024/03/09 02:02:45;;;;;;;0.65;0.65;;;2.70;99.90;;;;;;5076873;28;20195;-80
2024/03/09 02:05:12;;;;;;;0.50;0.50;;;2.70;99.90;;;;;;5076706;28;20266;-80
2024/03/09 02:07:39;;;;;;;0.52;0.50;;;2.60;99.90;;;;;;5076564;28;20218;-81
2024/03/09 02:10:06;;;;;;;1.98;1.88;;;2.60;99.90;;;;;;5074232;28;20237;-81
2024/03/09 02:12:35;;;;;;;0.50;0.50;;;2.60;99.90;;;;;;5073971;28;20198;-81
2024/03/09 02:15:04;;;;;;;8.32;4.80;;;2.60;99.90;;;;;;5076272;28;20613;-81
2024/03/09 02:17:33;;;;;;;0.60;0.60;;;2.60;99.90;;;;;;5076337;28;20214;-81
2024/03/09 02:20:00;;;;;;;1.88;1.77;;;2.60;99.90;;;;;;5075707;28;20201;-80
2024/03/09 02:22:27;;;;;;;0.60;0.60;;;2.60;99.90;;;;;;5075669;28;20735;-81
2024/03/09 02:24:56;;;;;;;0.80;0.80;;;2.70;99.90;;;;;;5074583;28;20288;-80
2024/03/09 02:27:25;;;;;;;0.50;0.50;;;2.60;99.90;;;;;;5075774;28;20218;-80
2024/03/09 02:29:52;;;;;;;0.68;0.65;;;2.60;99.90;;;;;;5075498;28;20198;-80
2024/03/09 02:32:21;;;;;;;1.40;1.40;;;2.60;99.90;;;;;;5075690;28;20280;-81
2024/03/09 02:34:48;;;;;;;2.88;2.38;;;2.60;99.90;;;;;;5075170;28;20364;-81
2024/03/09 02:37:15;;;;;;;0.50;0.50;;;2.50;99.90;;;;;;5075151;28;20214;-80
2024/03/09 02:39:42;;;;;;;1.73;1.63;;;2.50;99.90;;;;;;5075124;28;20577;-81
2024/03/09 02:42:15;;;;;;;2.45;2.35;;;2.60;99.90;;;;;;5074955;28;20205;-81
2024/03/09 02:44:42;;;;;;;0.52;0.52;;;2.60;99.90;;;;;;5072719;28;20198;-81
2024/03/09 02:47:12;;;;;;;0.50;0.50;;;2.60;99.90;;;;;;5074847;28;20214;-81
2024/03/09 02:49:38;;;;;;;2.10;2.00;;;2.60;99.90;;;;;;5074201;28;20198;-81
2024/03/09 02:52:05;;;;;;;0.50;0.47;;;2.60;99.90;;;;;;5074197;28;20198;-81
2024/03/09 02:54:33;;;;;;;0.75;0.75;;;2.60;99.90;;;;;;5073980;28;20198;-81
2024/03/09 02:57:00;;;;;;;0.50;0.50;;;2.60;99.90;;;;;;5074084;28;20689;-81
2024/03/09 02:59:28;;;;;;;1.27;1.27;;;2.60;99.90;;;;;;5074038;28;20278;-81
2024/03/09 03:01:55;;;;;;;0.50;0.50;;;2.60;99.90;;;;;;5073955;28;20201;-81
2024/03/09 03:04:21;;;;;;;0.50;0.40;;;2.60;99.90;;;;;;5073743;28;20198;-80
2024/03/09 03:06:47;;;;;;;0.87;0.87;;;2.60;99.90;;;;;;5073506;28;20195;-81
2024/03/09 03:09:15;;;;;;;0.50;0.40;;;2.60;99.90;;;;;;5073335;28;20716;-81
2024/03/09 03:11:43;;;;;;;12.43;5.57;;;2.60;99.90;;;;;;5071909;28;20677;-81
2024/03/09 03:14:10;;;;;;;1.85;1.75;;;2.60;99.90;;;;;;5073398;28;20233;-82
2024/03/09 03:16:41;;;;;;;1.60;1.58;;;2.70;99.90;;;;;;5073102;28;20568;-81
2024/03/09 03:19:09;;;;;;;3.10;2.85;;;2.70;99.90;;;;;;5072356;28;20211;-81
2024/03/09 03:21:39;;;;;;;6.28;2.78;;;2.80;99.90;;;;;;5072775;28;20194;-81
2024/03/09 03:24:08;;;;;;;0.50;0.50;;;2.80;99.90;;;;;;5072188;28;20248;-81
2024/03/09 03:26:36;;;;;;;2.22;2.13;;;2.90;99.90;;;;;;5072846;28;20210;-82
2024/03/09 03:29:03;;;;;;;0.70;0.70;;;2.90;99.90;;;;;;5072378;28;20225;-82
2024/03/09 03:31:31;;;;;;;2.33;2.13;;;2.90;99.90;;;;;;5074496;28;20194;-81
2024/03/09 03:34:00;;;;;;;0.50;0.50;;;2.90;99.90;;;;;;5073962;28;20228;-81
2024/03/09 03:36:28;;;;;;;2.00;1.80;;;3.00;99.90;;;;;;5074026;28;20209;-81
2024/03/09 03:38:55;;;;;;;0.50;0.45;;;2.90;99.90;;;;;;5073890;28;20619;-80
2024/03/09 03:41:23;;;;;;;1.77;1.67;;;3.00;99.90;;;;;;5073587;28;20233;-81
2024/03/09 03:43:50;;;;;;;0.50;0.50;;;2.90;99.90;;;;;;5073324;28;20218;-82
2024/03/09 03:46:17;;;;;;;2.30;2.05;;;2.90;99.90;;;;;;5073224;28;20194;-81
2024/03/09 03:48:45;;;;;;;3.80;2.25;;;2.90;99.90;;;;;;5073100;28;20250;-81
2024/03/09 03:51:14;;;;;;;4.13;3.75;;;2.80;99.90;;;;;;5073168;28;20252;-81
2024/03/09 03:53:41;;;;;;;0.50;0.43;;;2.90;99.90;;;;;;5073015;28;20205;-81
2024/03/09 03:56:08;;;;;;;0.50;0.50;;;2.90;99.90;;;;;;5080704;28;20240;-82
2024/03/09 03:58:35;;;;;;;0.50;0.50;;;2.90;99.90;;;;;;5085640;28;20216;-81
2024/03/09 04:01:02;;;;;;;0.50;0.40;;;2.80;99.90;;;;;;5085884;28;20272;-82
2024/03/09 04:03:31;;;;;;;0.95;0.95;;;2.80;99.90;;;;;;5082099;28;20194;-82
2024/03/09 04:05:58;;;;;;;1.00;1.00;;;2.80;99.90;;;;;;5075579;28;20190;-82
2024/03/09 04:08:26;;;;;;;0.60;0.60;;;2.70;99.90;;;;;;5072229;28;20612;-81
2024/03/09 04:10:53;;;;;;;2.53;2.08;;;2.70;99.90;;;;;;5072034;28;20198;-81
2024/03/09 04:13:23;;;;;;;0.50;0.40;;;2.70;99.90;;;;;;5071807;28;20285;-82
2024/03/09 04:15:52;;;;;;;0.82;0.82;;;2.70;99.90;;;;;;5075204;28;20220;-82
2024/03/09 04:18:19;;;;;;;1.35;1.17;;;2.60;99.90;;;;;;5079052;28;20634;-82
2024/03/09 04:20:45;;;;;;;3.60;3.50;;;2.60;99.90;;;;;;5079452;28;20198;-82
2024/03/09 04:23:16;;;;;;;9.25;4.82;;;2.60;99.90;;;;;;5078878;28;20195;-83
2024/03/09 04:25:44;;;;;;;0.50;0.50;;;2.60;99.90;;;;;;5079602;28;20198;-82
2024/03/09 04:28:12;;;;;;;0.50;0.40;;;2.50;99.90;;;;;;5077936;28;20233;-82
2024/03/09 04:30:40;;;;;;;0.95;0.90;;;2.50;99.90;;;;;;5078130;28;20199;-82
2024/03/09 04:33:08;;;;;;;1.45;0.95;;;2.50;99.90;;;;;;5078912;28;20202;-82
2024/03/09 04:35:35;;;;;;;0.50;0.50;;;2.50;99.90;;;;;;5080278;28;20206;-82
2024/03/09 04:38:03;;;;;;;0.90;0.90;;;2.50;99.90;;;;;;5082884;28;20676;-82
2024/03/09 04:40:33;;;;;;;0.50;0.50;;;2.40;99.90;;;;;;5082313;28;20221;-82
2024/03/09 04:43:03;;;;;;;0.50;0.50;;;2.40;99.90;;;;;;5082313;28;20213;-83
2024/03/09 04:45:31;;;;;;;0.65;0.65;;;2.40;99.90;;;;;;5082245;28;20639;-82
2024/03/09 04:47:59;;;;;;;0.70;0.70;;;2.40;99.90;;;;;;5082307;28;20620;-83
2024/03/09 04:50:26;;;;;;;7.18;4.00;;;2.40;99.90;;;;;;5082604;28;20248;-82
2024/03/09 04:52:53;;;;;;;0.50;0.40;;;2.40;99.90;;;;;;5082220;28;20269;-83
2024/03/09 04:55:25;;;;;;;0.50;0.50;;;2.30;99.90;;;;;;5082680;28;20206;-82
2024/03/09 04:57:53;;;;;;;0.50;0.40;;;2.30;99.90;;;;;;5082259;28;20229;-82
2024/03/09 05:00:24;;;;;;;0.68;0.68;;;2.30;99.90;;;;;;5081831;28;20194;-82
2024/03/09 05:02:51;;;;;;;2.38;2.28;;;2.30;99.90;;;;;;5081842;28;20198;-82
2024/03/09 05:05:19;;;;;;;0.50;0.50;;;2.30;99.90;;;;;;5081070;28;20201;-82
2024/03/09 05:07:46;;;;;;;3.72;3.58;;;2.30;99.90;;;;;;5081781;28;20696;-82
2024/03/09 05:10:17;;;;;;;1.05;1.05;;;2.40;99.90;;;;;;5081812;28;20214;-83
2024/03/09 05:12:44;;;;;;;0.50;0.50;;;2.40;99.90;;;;;;5081745;28;20206;-82
2024/03/09 05:15:12;;;;;;;1.70;1.45;;;2.40;99.90;;;;;;5081670;28;20194;-82
2024/03/09 05:17:40;;;;;;;0.50;0.50;;;2.40;99.90;;;;;;5081415;28;20210;-82
2024/03/09 05:20:19;;;;;;;0.95;0.95;;;2.50;99.90;;;;;;5079797;28;20198;-82
2024/03/09 05:22:47;;;;;;;0.80;0.80;;;2.50;99.90;;;;;;5081122;28;20202;-81
2024/03/09 05:25:17;;;;;;;0.50;0.47;;;2.50;99.90;;;;;;5081791;28;20281;-82
2024/03/09 05:27:43;;;;;;;0.60;0.60;;;2.50;99.90;;;;;;5081699;28;20302;-82
2024/03/09 05:30:14;;;;;;;0.50;0.50;;;2.50;99.90;;;;;;5081030;28;20218;-82
2024/03/09 05:32:49;;;;;;;0.50;0.40;;;2.50;99.90;;;;;;5080247;28;20199;-83
2024/03/09 05:35:16;;;;;;;0.50;0.45;;;2.50;99.90;;;;;;5082133;28;20202;-83
2024/03/09 05:37:41;;;;;;;0.50;0.50;;;2.60;99.90;;;;;;5080684;28;20224;-82
2024/03/09 05:40:11;;;;;;;0.50;0.50;;;2.60;99.90;;;;;;5080948;28;20669;-82
2024/03/09 05:42:38;;;;;;;0.80;0.80;;;2.60;99.90;;;;;;5081050;28;20198;-82
2024/03/09 05:45:09;;;;;;;0.50;0.50;;;2.60;99.90;;;;;;5081040;28;20201;-82
2024/03/09 05:47:39;;;;;;;1.98;1.20;;;2.60;99.90;;;;;;5081605;28;20218;-83
2024/03/09 05:50:08;;;;;;;6.90;5.60;;;2.50;99.90;;;;;;5081217;28;20249;-82
2024/03/09 05:52:34;;;;;;;1.08;1.08;;;2.60;99.90;;;;;;5081344;28;20673;-83
2024/03/09 05:55:01;;;;;;;0.50;0.47;;;2.60;99.90;;;;;;5081034;28;20201;-83
2024/03/09 05:57:28;;;;;;;1.25;1.15;;;2.60;99.90;;;;;;5080698;28;20215;-83
2024/03/09 05:59:55;;;;;;;9.93;5.60;;;2.60;99.90;;;;;;5081196;28;20194;-83
2024/03/09 06:02:23;;;;;;;0.50;0.50;;;2.60;99.90;;;;;;5081188;28;20190;-83
2024/03/09 06:04:50;;;;;;;1.90;1.80;;;2.60;99.90;;;;;;5081216;28;20197;-83
2024/03/09 06:07:20;;;;;;;4.03;3.80;;;2.60;99.90;;;;;;5081054;28;20222;-83
2024/03/09 06:09:47;;;;;;;2.05;1.95;;;2.60;99.90;;;;;;5081136;28;20215;-83
2024/03/09 06:12:15;;;;;;;2.78;2.67;;;2.60;99.90;;;;;;5080541;28;20202;-83
2024/03/09 06:14:44;;;;;;;0.50;0.50;;;2.60;99.90;;;;;;5079864;28;20206;-83
2024/03/09 06:17:12;;;;;;;0.50;0.50;;;2.60;99.90;;;;;;5080676;28;20219;-84
2024/03/09 06:19:39;;;;;;;2.15;2.05;;;2.60;99.90;;;;;;5081209;28;20198;-83
2024/03/09 06:22:05;;;;;;;0.50;0.40;;;2.70;99.90;;;;;;5080429;28;20194;-84
2024/03/09 06:24:34;;;;;;;0.50;0.47;;;2.70;99.90;;;;;;5080601;28;20665;-83
2024/03/09 06:27:01;;;;;;;0.50;0.40;;;2.80;99.90;;;;;;5080205;28;20202;-83
2024/03/09 06:29:30;;;;;;;0.63;0.63;;;2.90;99.90;;;;;;5081033;28;20210;-82
2024/03/09 06:31:56;;;;;;;1.38;1.38;;;2.90;99.90;;;;;;5079215;28;20258;-83
2024/03/09 06:34:25;;;;;;;0.50;0.50;;;3.00;99.90;;;;;;5080187;28;20197;-83
2024/03/09 06:36:57;;;;;;;2.92;2.72;;;3.00;99.90;;;;;;5083352;28;20198;-82
2024/03/09 06:39:25;;;;;;;0.50;0.45;;;3.00;99.90;;;;;;5080691;28;20285;-83
2024/03/09 06:41:54;;;;;;;0.50;0.50;;;3.10;99.90;;;;;;5080080;28;20214;-83
2024/03/09 06:44:22;;;;;;;1.45;1.35;;;3.10;99.90;;;;;;5079738;28;20206;-83
2024/03/09 06:46:51;;;;;;;0.93;0.93;;;3.20;99.90;;;;;;5080360;28;20563;-84
2024/03/09 06:49:18;;;;;;;0.50;0.50;;;3.30;99.90;;;;;;5080227;28;20224;-83
2024/03/09 06:51:45;;;;;;;1.50;1.50;;;3.40;99.90;;;;;;5082483;28;20195;-83
2024/03/09 06:54:12;;;;;;;2.78;1.85;;;3.50;99.90;;;;;;5083020;28;20285;-83
2024/03/09 06:56:39;;;;;;;0.50;0.50;;;3.60;99.90;;;;;;5079378;28;20195;-83
2024/03/09 06:59:07;;;;;;;5.55;2.35;;;3.70;99.90;;;;;;5079327;28;20214;-83
2024/03/09 07:01:36;;;;;;;5.45;3.83;;;3.70;99.90;;;;;;5079465;28;20198;-84
2024/03/09 07:04:04;;;;;;;1.60;1.60;;;3.90;99.90;;;;;;5079305;28;20336;-83
2024/03/09 07:06:31;;;;;;;2.17;2.08;;;4.00;99.90;;;;;;5080244;28;20195;-83
2024/03/09 07:08:58;;;;;;;0.60;0.60;;;4.00;99.90;;;;;;5079306;28;20868;-82
2024/03/09 07:11:26;;;;;;;0.50;0.50;;;3.90;99.90;;;;;;5078986;28;20198;-83
2024/03/09 07:13:56;;;;;;;0.50;0.45;;;4.00;99.90;;;;;;5078892;28;20199;-83
2024/03/09 07:16:24;;;;;;;0.50;0.50;;;4.00;99.90;;;;;;5078357;28;20198;-84
2024/03/09 07:18:51;;;;;;;0.50;0.50;;;4.10;99.90;;;;;;5078619;28;20215;-84
2024/03/09 07:21:20;;;;;;;0.50;0.50;;;4.20;99.90;;;;;;5078245;28;20198;-84
2024/03/09 07:23:47;;;;;;;0.50;0.40;;;4.30;99.90;;;;;;5076926;28;20198;-84
2024/03/09 07:26:14;;;;;;;3.92;2.25;;;4.40;99.90;;;;;;5083731;28;20194;-83
2024/03/09 07:28:43;;;;;;;0.60;0.60;;;4.50;99.90;;;;;;5082647;28;20320;-83
2024/03/09 07:31:11;;;;;;;1.20;1.20;;;4.60;99.90;;;;;;5088683;28;20195;-83
2024/03/09 07:33:46;;;;;;;4.70;2.20;;;4.70;99.90;;;;;;5079974;28;20205;-82
2024/03/09 07:36:14;;;;;;;0.50;0.50;;;4.80;99.90;;;;;;5073610;28;20198;-82
2024/03/09 07:38:42;;;;;;;0.50;0.40;;;4.90;99.90;;;;;;5072376;28;20218;-82
2024/03/09 07:41:11;;;;;;;0.50;0.40;;;5.00;99.90;;;;;;5072362;28;20237;-83
2024/03/09 07:43:38;;;;;;;0.50;0.40;;;5.20;99.90;;;;;;5072368;28;20797;-83
2024/03/09 07:46:05;;;;;;;1.63;1.52;;;5.40;99.90;;;;;;5073571;28;20194;-83
2024/03/09 07:48:32;;;;;;;0.60;0.60;;;5.50;99.90;;;;;;5075089;28;20722;-83
2024/03/09 07:51:00;;;;;;;0.50;0.40;;;5.50;99.90;;;;;;5085950;28;20214;-84
2024/03/09 07:53:28;;;;;;;0.50;0.50;;;5.60;99.90;;;;;;5095697;28;20195;-82
2024/03/09 07:55:58;;;;;;;0.50;0.40;;;5.60;99.90;;;;;;5092746;28;20178;-82
2024/03/09 07:58:25;;;;;;;0.50;0.50;;;5.60;99.90;;;;;;5088214;28;20248;-84
2024/03/09 08:00:53;;;;;;;0.50;0.50;;;5.70;99.90;;;;;;5077910;28;20281;-82
2024/03/09 08:03:22;;;;;;;2.15;2.10;;;5.70;99.90;;;;;;5062969;28;20221;-82
2024/03/09 08:05:49;;;;;;;0.50;0.40;;;5.70;99.90;;;;;;5058128;28;20221;-82
2024/03/09 08:08:17;;;;;;;0.50;0.40;;;5.80;99.90;;;;;;5055225;28;20215;-82
2024/03/09 08:10:46;;;;;;;0.50;0.50;;;5.90;99.90;;;;;;5064549;28;20237;-82
2024/03/09 08:13:14;;;;;;;0.50;0.50;;;6.00;99.90;;;;;;5057907;28;20688;-82
2024/03/09 08:15:40;;;;;;;0.77;0.77;;;6.40;99.90;;;;;;5070319;28;20198;-83
2024/03/09 08:18:09;;;;;;;1.83;1.73;;;7.70;99.90;;;;;;5078317;28;20234;-82
2024/03/09 08:20:35;;;;;;;2.97;2.77;;;9.20;99.90;;;;;;5082107;28;20191;-84
2024/03/09 08:23:02;;;;;;;2.83;2.73;;;10.90;99.90;;;;;;5081721;28;20443;-84
2024/03/09 08:25:31;;;;;;;0.90;0.90;;;12.50;99.90;;;;;;5080880;28;20432;-83
2024/03/09 08:28:00;;;;;;;2.83;2.63;;;13.80;99.90;;;;;;5081562;28;20456;-84
2024/03/09 08:30:27;;;;;;;5.30;4.90;;;14.30;99.90;;;;;;5081275;28;20480;-83
2024/03/09 08:32:58;;;;;;;5.70;1.93;;;15.10;99.90;;;;;;5081674;28;20447;-84
2024/03/09 08:35:27;;;;;;;5.80;4.10;;;16.30;99.90;;;;;;5081525;28;20476;-84
2024/03/09 08:37:54;;;;;;;2.10;1.50;;;16.80;93.80;;;;;;5080999;28;20475;-84
2024/03/09 08:40:25;;;;;;;1.97;1.03;;;17.70;90.50;;;;;;5081237;28;20436;-84
2024/03/09 08:42:54;;;;;;;2.90;2.00;;;18.20;87.70;;;;;;5081074;28;20877;-83
2024/03/09 08:45:22;;;;;;;2.27;2.07;;;18.30;85.30;;;;;;5081225;28;20436;-84
2024/03/09 08:47:50;;;;;;;3.53;2.43;;;18.40;81.10;;;;;;5081112;28;20464;-84
2024/03/09 08:50:17;;;;;;;2.93;2.83;;;18.30;79.60;;;;;;5082518;28;20483;-83
2024/03/09 08:52:46;;;;;;;0.83;0.83;;;17.90;79.90;;;;;;5082604;28;20486;-84
2024/03/09 08:55:14;;;;;;;1.73;0.97;;;17.60;81.20;;;;;;5082606;28;20436;-84
2024/03/09 08:57:42;;;;;;;0.80;0.80;;;17.00;82.90;;;;;;5082794;28;21005;-84
2024/03/09 09:00:11;;;;;;;1.20;1.20;;;16.90;84.20;;;;;;5082205;28;20432;-83
2024/03/09 09:02:40;;;;;;;1.57;1.47;;;17.30;86.30;;;;;;5081948;28;20440;-83
2024/03/09 09:05:11;;;;;;;2.63;1.07;;;17.90;83.30;;;;;;5082041;28;20440;-84
2024/03/09 09:07:39;;;;;;;2.70;0.80;;;18.70;83.10;;;;;;5082334;28;20487;-84
2024/03/09 09:10:11;;;;;;;2.70;1.93;;;19.40;78.20;;;;;;5082145;28;20469;-83
2024/03/09 09:12:38;;;;;;;1.37;0.70;;;19.80;74.70;;;;;;5081778;28;20436;-83
2024/03/09 09:15:07;;;;;;;1.37;1.30;;;20.60;74.00;;;;;;5081442;28;20506;-84
2024/03/09 09:17:40;;;;;;;3.30;2.30;;;20.90;75.20;;;;;;5080690;28;20458;-83
2024/03/09 09:20:11;;;;;;;3.43;3.23;;;21.40;72.30;;;;;;5080640;28;20456;-84
2024/03/09 09:22:39;;;;;;;3.40;2.73;;;21.60;70.70;;;;;;5080704;28;20488;-83
2024/03/09 09:25:09;;;;;;;1.70;1.60;;;21.50;69.90;;;;;;5081485;28;20434;-83
2024/03/09 09:27:37;;;;;;;3.93;1.10;;;21.80;68.50;;;;;;5079797;28;20493;-83
2024/03/09 09:30:05;;;;;;;3.67;2.93;;;22.50;66.60;;;;;;5081208;28;20885;-83
2024/03/09 09:32:32;;;;;;;2.20;1.80;;;23.00;65.70;;;;;;5080747;28;20440;-83
2024/03/09 09:35:02;;;;;;;1.90;1.43;;;23.00;65.30;;;;;;5081153;28;20830;-84
2024/03/09 09:37:30;;;;;;;5.83;1.93;;;23.20;64.40;;;;;;5082131;28;20452;-83
2024/03/09 09:39:56;;;;;;;1.53;1.43;;;23.30;62.60;;;;;;5080170;28;20435;-84
2024/03/09 09:42:29;;;;;;;1.77;1.67;;;23.70;63.20;;;;;;5080102;28;20497;-84
2024/03/09 09:44:57;;;;;;;0.60;0.60;;;23.90;60.50;;;;;;5079814;28;20437;-83
2024/03/09 09:47:27;;;;;;;3.90;3.70;;;23.50;59.80;;;;;;5079622;28;20453;-84
2024/03/09 09:49:55;;;;;;;0.87;0.80;;;24.00;59.20;;;;;;5079265;28;20471;-84
2024/03/09 09:52:24;;;;;;;2.70;1.23;;;24.20;58.70;;;;;;5080336;28;20851;-83
2024/03/09 09:54:52;;;;;;;3.23;1.10;;;24.30;57.70;;;;;;5079982;28;20433;-83
2024/03/09 09:57:20;;;;;;;2.37;2.17;;;23.80;57.70;;;;;;5079489;28;20528;-84
2024/03/09 09:59:47;;;;;;;5.53;2.30;;;23.90;57.60;;;;;;5079268;28;20433;-83
2024/03/09 10:02:16;;;;;;;2.30;2.20;;;23.40;59.20;;;;;;5079290;28;20443;-83
2024/03/09 10:04:44;;;;;;;1.60;1.50;;;23.50;59.50;;;;;;5080225;28;20479;-83
2024/03/09 10:07:12;;;;;;;0.70;0.70;;;23.60;61.20;;;;;;5078832;28;21006;-83
2024/03/09 10:09:40;;;;;;;0.57;0.57;;;24.20;57.70;;;;;;5078521;28;20445;-83
2024/03/09 10:12:19;;;;;;;3.13;2.83;;;24.40;58.60;;;;;;5079858;28;20433;-83
2024/03/09 10:14:46;;;;;;;5.60;2.40;;;25.00;57.90;;;;;;5080543;28;20437;-83
2024/03/09 10:17:14;;;;;;;2.00;1.90;;;24.90;58.00;;;;;;5078055;28;20462;-83
2024/03/09 10:19:42;;;;;;;1.57;1.47;;;25.00;56.00;;;;;;5077654;28;20443;-83
2024/03/09 10:22:09;;;;;;;1.83;1.67;;;25.20;56.80;;;;;;5078258;28;20430;-83
2024/03/09 10:24:53;;;;;;;1.30;1.30;;;25.40;56.20;;;;;;5077323;28;20447;-83
2024/03/09 10:27:26;;;;;;;4.07;1.57;;;25.20;55.70;;;;;;5078814;28;20468;-83
2024/03/09 10:30:10;;;;;;;1.10;1.00;;;25.40;56.80;;;;;;5080523;28;20506;-83
2024/03/09 10:32:37;;;;;;;2.80;2.57;;;25.60;56.00;;;;;;5075472;28;20458;-83
2024/03/09 10:35:09;;;;;;;1.33;1.33;;;25.80;56.00;;;;;;5076658;28;20440;-84
2024/03/09 10:37:39;;;;;;;0.73;0.67;;;25.90;55.00;;;;;;5077721;28;20462;-83
2024/03/09 10:40:12;;;;;;;4.87;1.07;;;25.10;55.80;;;;;;5077920;28;20433;-83
2024/03/09 10:42:43;;;;;;;9.37;4.67;;;24.20;56.40;;;;;;5077588;28;20482;-84
2024/03/09 10:45:14;;;;;;;1.53;0.87;;;23.50;57.30;;;;;;5078184;28;20417;-83
2024/03/09 10:47:47;;;;;;;0.70;0.70;;;22.70;57.60;;;;;;5077975;28;20570;-83
2024/03/09 10:50:19;;;;;;;1.13;1.03;;;22.00;59.70;;;;;;5077466;28;20507;-83
2024/03/09 10:52:50;;;;;;;2.53;0.50;;;21.20;59.80;;;;;;5077859;28;20901;-83
2024/03/09 10:55:28;;;;;;;1.47;1.37;;;20.40;60.50;;;;;;5076924;28;20435;-83
2024/03/09 10:57:57;;;;;;;0.50;0.50;;;19.80;59.60;;;;;;5077496;28;20531;-83
2024/03/09 11:00:29;;;;;;;1.07;0.97;;;19.10;61.10;;;;;;5077754;28;20831;-82
2024/03/09 11:02:57;;;;;;;0.50;0.40;;;18.80;62.70;;;;;;5076631;28;20429;-83
2024/03/09 11:05:24;;;;;;;0.50;0.30;;;18.30;62.00;;;;;;5076499;28;20932;-82
2024/03/09 11:07:52;;;;;;;0.50;0.40;;;18.20;63.00;;;;;;5074755;28;20460;-83
2024/03/09 11:10:22;;;;;;;0.50;0.40;;;18.20;64.10;;;;;;5074733;28;20994;-82
2024/03/09 11:12:49;;;;;;;2.50;1.57;;;18.40;63.80;;;;;;5075168;28;20437;-83
2024/03/09 11:15:21;;;;;;;0.50;0.40;;;18.70;64.00;;;;;;5074681;28;20443;-82
2024/03/09 11:17:49;;;;;;;0.50;0.30;;;19.40;65.00;;;;;;5075879;28;20485;-81
2024/03/09 11:20:22;;;;;;;0.90;0.90;;;20.70;63.80;;;;;;5073742;28;20506;-83
2024/03/09 11:22:52;;;;;;;1.17;1.10;;;22.00;62.10;;;;;;5075406;28;20447;-83
2024/03/09 11:28:23;;;;;;;1.03;0.40;;;23.30;59.90;;;;;;5093387;28;20521;-82
2024/03/09 11:31:11;;;;;;;1.23;1.13;;;25.40;57.80;;;;;;5092497;28;20467;-82
2024/03/09 11:33:43;;;;;;;1.90;1.80;;;26.10;57.80;;;;;;5092654;28;20432;-82
2024/03/09 11:36:37;;;;;;;0.50;0.40;;;26.40;56.30;;;;;;5092188;28;20780;-82
2024/03/09 11:39:04;;;;;;;0.83;0.83;;;26.40;55.60;;;;;;5091387;28;20460;-82
2024/03/09 11:41:35;;;;;;;0.50;0.30;;;26.70;54.10;;;;;;5091737;28;20436;-82
2024/03/09 11:44:06;;;;;;;0.57;0.57;;;26.90;54.20;;;;;;5091622;28;20432;-82
2024/03/09 11:46:34;;;;;;;6.00;1.17;;;27.30;55.10;;;;;;5091399;28;20472;-82
2024/03/09 11:49:03;;;;;;;0.50;0.40;;;27.60;54.60;;;;;;5091724;28;20834;-82
2024/03/09 11:51:33;;;;;;;3.43;0.80;;;28.00;53.20;;;;;;5090983;28;20436;-83
2024/03/09 11:54:02;;;;;;;0.67;0.67;;;28.00;51.20;;;;;;5090226;28;20428;-83
2024/03/09 11:56:30;;;;;;;0.50;0.40;;;27.50;51.70;;;;;;5090381;28;20923;-82
2024/03/09 11:58:57;;;;;;;0.50;0.50;;;26.90;51.70;;;;;;5090363;28;21013;-82
2024/03/09 12:01:25;;;;;;;0.50;0.30;;;26.70;53.10;;;;;;5089407;28;20440;-83
2024/03/09 12:03:52;;;;;;;1.80;1.70;;;26.70;53.30;;;;;;5088119;28;20449;-82
2024/03/09 12:06:19;;;;;;;0.50;0.30;;;26.00;52.40;;;;;;5091885;28;20507;-83
2024/03/09 12:08:49;;;;;;;0.80;0.80;;;25.60;54.70;;;;;;5098965;28;20459;-83
2024/03/09 12:11:18;;;;;;;4.10;1.63;;;25.30;53.50;;;;;;5098035;28;20436;-82
2024/03/09 12:13:45;;;;;;;0.73;0.73;;;24.80;52.80;;;;;;5097106;28;20444;-83
2024/03/09 12:16:13;;;;;;;1.17;1.13;;;23.70;53.40;;;;;;5096254;28;20440;-83
2024/03/09 12:18:45;;;;;;;6.43;4.63;;;23.30;55.80;;;;;;5097485;28;20483;-83
2024/03/09 12:21:15;;;;;;;0.50;0.40;;;23.80;55.00;;;;;;5097332;28;20441;-83
2024/03/09 12:23:48;;;;;;;2.70;1.03;;;24.40;54.70;;;;;;5096112;28;20464;-83
2024/03/09 12:26:15;;;;;;;0.87;0.87;;;25.00;53.70;;;;;;5096200;28;20469;-83
2024/03/09 12:28:45;;;;;;;0.50;0.37;;;25.00;53.40;;;;;;5096723;28;20547;-83
2024/03/09 12:31:13;;;;;;;0.50;0.40;;;25.00;54.40;;;;;;5096528;28;20440;-83
2024/03/09 12:33:42;;;;;;;0.60;0.60;;;25.30;54.50;;;;;;5096641;28;20445;-83
2024/03/09 12:36:09;;;;;;;1.60;1.50;;;25.60;53.60;;;;;;5095897;28;20550;-83
2024/03/09 12:38:37;;;;;;;0.50;0.37;;;25.90;53.50;;;;;;5088883;28;20453;-84
2024/03/09 12:41:05;;;;;;;0.50;0.30;;;26.20;53.20;;;;;;5082832;28;20447;-83
2024/03/09 12:43:34;;;;;;;0.50;0.50;;;26.50;52.60;;;;;;5084468;28;20837;-83
2024/03/09 12:46:06;;;;;;;0.80;0.80;;;26.40;52.30;;;;;;5082308;28;20446;-83
2024/03/09 12:48:35;;;;;;;0.60;0.50;;;25.80;52.00;;;;;;5082252;28;20912;-83
2024/03/09 12:51:05;;;;;;;0.97;0.97;;;25.90;51.90;;;;;;5081928;28;20505;-83
2024/03/09 12:53:33;;;;;;;2.73;0.70;;;25.80;52.70;;;;;;5082187;28;20485;-83
2024/03/09 12:56:04;;;;;;;1.07;0.93;;;26.00;52.30;;;;;;5082110;28;20438;-83
2024/03/09 12:58:31;;;;;;;1.47;1.33;;;26.40;53.10;;;;;;5082063;28;20489;-83
2024/03/09 13:00:59;;;;;;;0.80;0.80;;;27.00;52.60;;;;;;5081907;28;20440;-83
2024/03/09 13:03:26;;;;;;;1.23;0.73;;;26.70;51.20;;;;;;5081992;28;20463;-83